createdAt,value
2018-02-11T00:01:01.092Z,0
2018-02-11T00:02:14.248Z,0
2018-02-11T00:03:27.376Z,0
2018-02-11T00:04:40.501Z,0
2018-02-11T00:05:53.691Z,0
2018-02-11T00:07:06.819Z,0
2018-02-11T00:08:19.956Z,0
2018-02-11T00:09:33.144Z,0
2018-02-11T00:10:46.338Z,0
2018-02-11T00:11:59.570Z,0
2018-02-11T00:13:12.745Z,0
2018-02-11T00:14:25.939Z,0
2018-02-11T00:15:39.049Z,0
2018-02-11T00:16:52.140Z,0
2018-02-11T00:18:05.294Z,0
2018-02-11T00:19:18.487Z,0
2018-02-11T00:20:31.673Z,0
2018-02-11T00:21:44.909Z,0
2018-02-11T00:22:58.079Z,0
2018-02-11T00:24:11.236Z,0
2018-02-11T00:25:24.420Z,0
2018-02-11T00:26:37.336Z,0
2018-02-11T00:27:50.576Z,0
2018-02-11T00:29:03.781Z,0
2018-02-11T00:30:16.948Z,0
2018-02-11T00:31:30.135Z,0
2018-02-11T00:32:43.319Z,0
2018-02-11T00:33:56.520Z,0
2018-02-11T00:35:09.807Z,0
2018-02-11T00:36:23.004Z,0
2018-02-11T00:37:36.112Z,0
2018-02-11T00:38:49.058Z,0
2018-02-11T00:40:01.831Z,0
2018-02-11T00:41:15.038Z,0
2018-02-11T00:42:28.313Z,0
2018-02-11T00:43:41.261Z,0
2018-02-11T00:44:54.457Z,0
2018-02-11T00:46:07.701Z,0
2018-02-11T00:47:20.440Z,0
2018-02-11T00:48:33.195Z,0
2018-02-11T00:49:46.380Z,0
2018-02-11T00:50:59.311Z,0
2018-02-11T00:52:12.481Z,0
2018-02-11T00:53:25.647Z,0
2018-02-11T00:54:38.418Z,0
2018-02-11T00:55:51.678Z,0
2018-02-11T00:57:04.928Z,0
2018-02-11T00:58:18.064Z,0
2018-02-11T00:59:30.765Z,0
2018-02-11T01:00:43.963Z,0
2018-02-11T01:01:57.166Z,0
2018-02-11T01:03:10.299Z,0
2018-02-11T01:04:23.428Z,0
2018-02-11T01:05:36.671Z,0
2018-02-11T01:06:49.821Z,0
2018-02-11T01:08:03.084Z,0
2018-02-11T01:09:16.250Z,0
2018-02-11T01:10:29.373Z,0
2018-02-11T01:11:42.596Z,0
2018-02-11T01:12:55.779Z,0
2018-02-11T01:14:08.995Z,0
2018-02-11T01:15:22.184Z,0
2018-02-11T01:16:35.420Z,0
2018-02-11T01:17:48.627Z,0
2018-02-11T01:19:01.810Z,0
2018-02-11T01:20:15.078Z,0
2018-02-11T01:21:28.247Z,0
2018-02-11T01:22:41.478Z,0
2018-02-11T01:23:54.722Z,0
2018-02-11T01:25:07.996Z,0
2018-02-11T01:26:21.164Z,0
2018-02-11T01:27:33.861Z,0
2018-02-11T01:28:47.091Z,0
2018-02-11T01:30:00.236Z,0
2018-02-11T01:31:13.461Z,0
2018-02-11T01:32:26.176Z,0
2018-02-11T01:33:39.432Z,0
2018-02-11T01:34:52.621Z,0
2018-02-11T01:36:05.834Z,0
2018-02-11T01:37:18.984Z,0
2018-02-11T01:38:32.214Z,0
2018-02-11T01:39:45.392Z,0
2018-02-11T01:40:58.631Z,0
2018-02-11T01:42:11.823Z,0
2018-02-11T01:43:25.079Z,0
2018-02-11T01:44:38.312Z,0
2018-02-11T01:45:51.411Z,0
2018-02-11T01:47:04.565Z,0
2018-02-11T01:48:17.705Z,0
2018-02-11T01:49:30.853Z,0
2018-02-11T01:50:44.052Z,0
2018-02-11T01:51:56.765Z,0
2018-02-11T01:53:10.012Z,0
2018-02-11T01:54:23.178Z,0
2018-02-11T01:55:36.343Z,0
2018-02-11T01:56:49.494Z,0
2018-02-11T01:58:02.676Z,0
2018-02-11T01:59:15.606Z,0
2018-02-11T02:00:28.846Z,0
2018-02-11T02:01:42.059Z,0
2018-02-11T02:02:55.273Z,0
2018-02-11T02:04:08.543Z,0
2018-02-11T02:05:21.660Z,0
2018-02-11T02:06:34.797Z,0
2018-02-11T02:07:48.017Z,0
2018-02-11T02:09:01.230Z,0
2018-02-11T02:10:14.445Z,0
2018-02-11T02:11:27.573Z,0
2018-02-11T02:12:40.755Z,0
2018-02-11T02:13:53.919Z,0
2018-02-11T02:15:07.063Z,0
2018-02-11T02:16:20.221Z,0
2018-02-11T02:17:33.377Z,0
2018-02-11T02:18:46.529Z,0
2018-02-11T02:19:59.681Z,0
2018-02-11T02:21:12.842Z,0
2018-02-11T02:22:25.885Z,0
2018-02-11T02:23:39.086Z,0
2018-02-11T02:24:52.239Z,0
2018-02-11T02:26:05.407Z,0
2018-02-11T02:27:18.125Z,0
2018-02-11T02:28:31.333Z,0
2018-02-11T02:29:44.512Z,0
2018-02-11T02:30:57.727Z,0
2018-02-11T02:32:10.936Z,0
2018-02-11T02:33:23.657Z,0
2018-02-11T02:34:36.823Z,0
2018-02-11T02:35:50.049Z,0
2018-02-11T02:37:02.767Z,0
2018-02-11T02:38:15.907Z,0
2018-02-11T02:39:29.118Z,0
2018-02-11T02:40:42.279Z,0
2018-02-11T02:41:55.457Z,0
2018-02-11T02:43:08.651Z,0
2018-02-11T02:44:21.818Z,0
2018-02-11T02:45:34.535Z,0
2018-02-11T02:46:47.732Z,0
2018-02-11T02:48:00.973Z,0
2018-02-11T02:49:13.930Z,0
2018-02-11T02:50:27.172Z,0
2018-02-11T02:51:40.412Z,0
2018-02-11T02:52:52.892Z,0
2018-02-11T02:54:06.072Z,0
2018-02-11T02:55:19.278Z,0
2018-02-11T02:56:32.472Z,0
2018-02-11T02:57:45.593Z,0
2018-02-11T02:58:58.780Z,0
2018-02-11T03:00:11.926Z,0
2018-02-11T03:01:24.908Z,0
2018-02-11T03:02:38.098Z,0
2018-02-11T03:03:51.283Z,0
2018-02-11T03:05:04.479Z,0
2018-02-11T03:06:17.622Z,0
2018-02-11T03:07:30.819Z,0
2018-02-11T03:08:43.984Z,0
2018-02-11T03:09:57.113Z,0
2018-02-11T03:11:10.340Z,0
2018-02-11T03:12:23.444Z,0
2018-02-11T03:13:36.595Z,0
2018-02-11T03:14:49.726Z,0
2018-02-11T03:16:02.692Z,0
2018-02-11T03:17:15.719Z,0
2018-02-11T03:18:28.915Z,0
2018-02-11T03:19:41.956Z,0
2018-02-11T03:20:55.220Z,0
2018-02-11T03:22:08.452Z,0
2018-02-11T03:23:21.685Z,0
2018-02-11T03:24:34.867Z,0
2018-02-11T03:25:47.925Z,0
2018-02-11T03:27:01.098Z,0
2018-02-11T03:28:14.295Z,0
2018-02-11T03:29:27.450Z,0
2018-02-11T03:30:40.677Z,0
2018-02-11T03:31:53.861Z,0
2018-02-11T03:33:07.008Z,0
2018-02-11T03:34:20.194Z,0
2018-02-11T03:35:33.346Z,0
2018-02-11T03:36:46.592Z,0
2018-02-11T03:37:59.806Z,0
2018-02-11T03:39:12.951Z,0
2018-02-11T03:40:26.125Z,0
2018-02-11T03:41:39.104Z,0
2018-02-11T03:42:52.265Z,0
2018-02-11T03:44:05.474Z,0
2018-02-11T03:45:18.669Z,0
2018-02-11T03:46:31.844Z,0
2018-02-11T03:47:45.076Z,0
2018-02-11T03:48:58.239Z,0
2018-02-11T03:50:11.473Z,0
2018-02-11T03:51:24.668Z,0
2018-02-11T03:52:37.855Z,0
2018-02-11T03:53:51.085Z,0
2018-02-11T03:55:03.959Z,0
2018-02-11T03:56:17.077Z,0
2018-02-11T03:57:30.292Z,0
2018-02-11T03:58:43.519Z,0
2018-02-11T03:59:56.808Z,0
2018-02-11T04:01:09.975Z,0
2018-02-11T04:02:23.224Z,0
2018-02-11T04:03:36.400Z,0
2018-02-11T04:04:49.665Z,0
2018-02-11T04:06:02.464Z,0
2018-02-11T04:07:15.706Z,0
2018-02-11T04:08:28.679Z,0
2018-02-11T04:09:41.919Z,0
2018-02-11T04:10:55.110Z,0
2018-02-11T04:12:08.311Z,0
2018-02-11T04:13:20.529Z,0
2018-02-11T04:14:33.749Z,0
2018-02-11T04:15:46.967Z,0
2018-02-11T04:17:00.091Z,0
2018-02-11T04:18:13.243Z,0
2018-02-11T04:19:26.391Z,0
2018-02-11T04:20:39.587Z,0
2018-02-11T04:21:52.284Z,0
2018-02-11T04:23:05.469Z,0
2018-02-11T04:24:18.625Z,0
2018-02-11T04:25:31.783Z,0
2018-02-11T04:26:44.978Z,0
2018-02-11T04:27:58.167Z,0
2018-02-11T04:29:11.421Z,0
2018-02-11T04:30:24.605Z,0
2018-02-11T04:31:37.816Z,0
2018-02-11T04:32:50.586Z,0
2018-02-11T04:34:03.871Z,0
2018-02-11T04:35:17.032Z,0
2018-02-11T04:36:30.224Z,0
2018-02-11T04:37:43.371Z,0
2018-02-11T04:38:56.619Z,0
2018-02-11T04:40:09.813Z,0
2018-02-11T04:41:23.000Z,0
2018-02-11T04:42:36.236Z,0
2018-02-11T04:43:49.392Z,0
2018-02-11T04:45:02.628Z,0
2018-02-11T04:46:15.870Z,0
2018-02-11T04:47:29.042Z,0
2018-02-11T04:48:42.249Z,0
2018-02-11T04:49:55.458Z,0
2018-02-11T04:51:08.675Z,0
2018-02-11T04:52:21.886Z,0
2018-02-11T04:53:35.123Z,0
2018-02-11T04:54:48.284Z,0
2018-02-11T04:56:01.447Z,0
2018-02-11T04:57:14.618Z,0
2018-02-11T04:58:27.797Z,0
2018-02-11T04:59:40.909Z,0
2018-02-11T05:00:54.078Z,0
2018-02-11T05:02:07.299Z,0
2018-02-11T05:03:20.449Z,0
2018-02-11T05:04:33.639Z,0
2018-02-11T05:05:46.537Z,0
2018-02-11T05:06:59.686Z,0
2018-02-11T05:08:12.890Z,0
2018-02-11T05:09:26.096Z,0
2018-02-11T05:10:39.289Z,0
2018-02-11T05:11:52.470Z,0
2018-02-11T05:13:05.697Z,0
2018-02-11T05:14:18.632Z,0
2018-02-11T05:15:31.964Z,0
2018-02-11T05:16:45.111Z,0
2018-02-11T05:17:58.250Z,0
2018-02-11T05:19:11.441Z,0
2018-02-11T05:20:24.636Z,0
2018-02-11T05:21:37.366Z,0
2018-02-11T05:22:50.505Z,0
2018-02-11T05:24:03.748Z,0
2018-02-11T05:25:16.944Z,0
2018-02-11T05:26:30.202Z,0
2018-02-11T05:27:43.408Z,0
2018-02-11T05:28:56.317Z,0
2018-02-11T05:30:09.549Z,0
2018-02-11T05:31:22.719Z,0
2018-02-11T05:32:35.916Z,0
2018-02-11T05:33:49.220Z,0
2018-02-11T05:35:02.114Z,0
2018-02-11T05:36:15.278Z,0
2018-02-11T05:37:28.458Z,0
2018-02-11T05:38:41.704Z,0
2018-02-11T05:39:54.900Z,0
2018-02-11T05:41:08.194Z,0
2018-02-11T05:42:21.357Z,0
2018-02-11T05:43:34.545Z,0
2018-02-11T05:44:47.806Z,0
2018-02-11T05:46:00.987Z,0
2018-02-11T05:47:14.157Z,0
2018-02-11T05:48:27.081Z,0
2018-02-11T05:49:40.278Z,0
2018-02-11T05:50:53.516Z,0
2018-02-11T05:52:06.741Z,0
2018-02-11T05:53:19.954Z,0
2018-02-11T05:54:33.200Z,0
2018-02-11T05:55:46.157Z,0
2018-02-11T05:56:59.348Z,0
2018-02-11T05:58:12.587Z,0
2018-02-11T05:59:25.821Z,0
2018-02-11T06:00:39.028Z,0
2018-02-11T06:01:51.676Z,0
2018-02-11T06:03:04.416Z,0
2018-02-11T06:04:17.669Z,0
2018-02-11T06:05:30.878Z,0
2018-02-11T06:06:44.038Z,0
2018-02-11T06:07:56.720Z,0
2018-02-11T06:09:09.876Z,0
2018-02-11T06:10:23.075Z,0
2018-02-11T06:11:36.304Z,0
2018-02-11T06:12:49.515Z,0
2018-02-11T06:14:02.623Z,0
2018-02-11T06:15:15.809Z,0
2018-02-11T06:16:28.831Z,0
2018-02-11T06:17:41.993Z,0
2018-02-11T06:18:55.309Z,0
2018-02-11T06:20:08.047Z,0
2018-02-11T06:21:21.240Z,0
2018-02-11T06:22:34.373Z,0
2018-02-11T06:23:47.613Z,0
2018-02-11T06:25:00.543Z,0
2018-02-11T06:26:13.737Z,0
2018-02-11T06:27:26.887Z,0
2018-02-11T06:28:40.147Z,0
2018-02-11T06:29:53.370Z,0
2018-02-11T06:31:06.539Z,0
2018-02-11T06:32:19.677Z,0
2018-02-11T06:33:32.867Z,0
2018-02-11T06:34:46.113Z,0
2018-02-11T06:35:59.245Z,0
2018-02-11T06:37:12.496Z,0
2018-02-11T06:38:25.659Z,0
2018-02-11T06:39:38.895Z,0
2018-02-11T06:40:52.072Z,0
2018-02-11T06:42:05.295Z,0
2018-02-11T06:43:18.534Z,0
2018-02-11T06:44:31.777Z,0
2018-02-11T06:45:45.035Z,0
2018-02-11T06:46:58.198Z,0
2018-02-11T06:48:11.366Z,0
2018-02-11T06:49:24.324Z,0
2018-02-11T06:50:37.541Z,0
2018-02-11T06:51:50.749Z,0
2018-02-11T06:53:03.963Z,0
2018-02-11T06:54:17.169Z,0
2018-02-11T06:55:30.428Z,0
2018-02-11T06:56:43.604Z,0
2018-02-11T06:57:56.607Z,0
2018-02-11T06:59:09.789Z,0
2018-02-11T07:00:22.972Z,0
2018-02-11T07:01:36.194Z,0
2018-02-11T07:02:49.151Z,0
2018-02-11T07:04:02.280Z,0
2018-02-11T07:05:15.517Z,0
2018-02-11T07:06:28.642Z,0
2018-02-11T07:07:41.781Z,0
2018-02-11T07:08:54.937Z,0
2018-02-11T07:10:08.089Z,0
2018-02-11T07:11:21.341Z,0
2018-02-11T07:12:34.451Z,0
2018-02-11T07:13:47.704Z,0
2018-02-11T07:15:00.904Z,0
2018-02-11T07:16:14.093Z,0
2018-02-11T07:17:27.331Z,0
2018-02-11T07:18:40.486Z,0
2018-02-11T07:19:53.640Z,0
2018-02-11T07:21:06.879Z,0
2018-02-11T07:22:19.588Z,0
2018-02-11T07:23:32.742Z,0
2018-02-11T07:24:45.938Z,0
2018-02-11T07:25:59.141Z,0
2018-02-11T07:27:12.313Z,0
2018-02-11T07:28:25.517Z,0
2018-02-11T07:29:38.675Z,0
2018-02-11T07:30:51.903Z,0
2018-02-11T07:32:05.029Z,0
2018-02-11T07:33:18.263Z,0
2018-02-11T07:34:31.446Z,0
2018-02-11T07:35:44.114Z,0
2018-02-11T07:36:56.818Z,0
2018-02-11T07:38:10.045Z,0
2018-02-11T07:39:23.231Z,0
2018-02-11T07:40:36.449Z,0
2018-02-11T07:41:49.626Z,0
2018-02-11T07:43:02.738Z,0
2018-02-11T07:44:15.913Z,0
2018-02-11T07:45:29.124Z,0
2018-02-11T07:46:42.325Z,0
2018-02-11T07:47:55.504Z,0
2018-02-11T07:49:08.706Z,0
2018-02-11T07:50:21.873Z,0
2018-02-11T07:51:34.740Z,0
2018-02-11T07:52:47.953Z,0
2018-02-11T07:54:01.088Z,0
2018-02-11T07:55:14.272Z,0
2018-02-11T07:56:27.523Z,0
2018-02-11T07:57:40.732Z,0
2018-02-11T07:58:53.863Z,0
2018-02-11T08:00:07.093Z,0
2018-02-11T08:01:20.263Z,0
2018-02-11T08:02:33.457Z,0
2018-02-11T08:03:46.696Z,0
2018-02-11T08:04:59.931Z,0
2018-02-11T08:06:12.898Z,0
2018-02-11T08:07:26.083Z,0
2018-02-11T08:08:39.310Z,0
2018-02-11T08:09:52.501Z,0
2018-02-11T08:11:05.650Z,0
2018-02-11T08:12:18.844Z,0
2018-02-11T08:13:32.101Z,0
2018-02-11T08:14:45.296Z,0
2018-02-11T08:15:58.461Z,0
2018-02-11T08:17:11.673Z,0
2018-02-11T08:18:24.890Z,0
2018-02-11T08:19:38.050Z,0
2018-02-11T08:20:51.004Z,0
2018-02-11T08:22:04.198Z,0
2018-02-11T08:23:17.383Z,0
2018-02-11T08:24:30.562Z,0
2018-02-11T08:25:43.376Z,0
2018-02-11T08:26:56.542Z,0
2018-02-11T08:28:09.685Z,0
2018-02-11T08:29:22.384Z,0
2018-02-11T08:30:35.650Z,0
2018-02-11T08:31:48.362Z,0
2018-02-11T08:33:01.556Z,0
2018-02-11T08:34:14.692Z,0
2018-02-11T08:35:27.358Z,0
2018-02-11T08:36:40.522Z,0
2018-02-11T08:37:53.702Z,0
2018-02-11T08:40:51.347Z,0
2018-02-11T08:42:04.549Z,0
2018-02-11T08:43:17.743Z,0
2018-02-11T08:44:30.969Z,0
2018-02-11T08:45:44.245Z,0
2018-02-11T08:46:57.418Z,0
2018-02-11T08:48:41.859Z,0
2018-02-11T08:49:55.118Z,0
2018-02-11T08:51:08.256Z,0
2018-02-11T08:52:21.201Z,0
2018-02-11T08:53:34.389Z,0
2018-02-11T08:54:47.651Z,0
2018-02-11T08:56:00.940Z,0
2018-02-11T08:57:14.050Z,0
2018-02-11T08:58:27.000Z,0
2018-02-11T08:59:40.194Z,0
2018-02-11T09:00:53.429Z,0
2018-02-11T09:02:06.577Z,0
2018-02-11T09:03:19.701Z,0
2018-02-11T09:04:32.914Z,0
2018-02-11T09:05:46.092Z,0
2018-02-11T09:06:59.245Z,0
2018-02-11T09:08:12.402Z,0
2018-02-11T09:09:25.617Z,0
2018-02-11T09:10:38.262Z,0
2018-02-11T09:11:51.390Z,0
2018-02-11T09:13:04.518Z,0
2018-02-11T09:14:17.644Z,0
2018-02-11T09:15:30.847Z,0
2018-02-11T09:16:44.005Z,0
2018-02-11T09:17:57.175Z,0
2018-02-11T09:19:10.330Z,0
2018-02-11T09:20:23.609Z,0
2018-02-11T09:21:36.822Z,0
2018-02-11T09:22:49.992Z,0
2018-02-11T09:24:03.119Z,0
2018-02-11T09:25:16.248Z,0
2018-02-11T09:26:29.403Z,0
2018-02-11T09:27:42.613Z,0
2018-02-11T09:28:55.811Z,0
2018-02-11T09:30:09.011Z,0
2018-02-11T09:31:22.222Z,0
2018-02-11T09:32:35.423Z,0
2018-02-11T09:33:48.612Z,0
2018-02-11T09:35:01.741Z,0
2018-02-11T09:36:14.874Z,0
2018-02-11T09:37:28.058Z,0
2018-02-11T09:38:41.212Z,0
2018-02-11T09:39:54.570Z,0
2018-02-11T09:41:07.812Z,0
2018-02-11T09:42:20.988Z,0
2018-02-11T09:43:34.302Z,0
2018-02-11T09:44:47.520Z,0
2018-02-11T09:46:00.716Z,0
2018-02-11T09:47:13.945Z,0
2018-02-11T09:48:27.123Z,0
2018-02-11T09:49:40.352Z,0
2018-02-11T09:50:53.571Z,0
2018-02-11T09:52:06.763Z,0
2018-02-11T09:53:19.953Z,0
2018-02-11T09:54:33.110Z,0
2018-02-11T09:55:46.316Z,0
2018-02-11T09:56:59.464Z,0
2018-02-11T09:58:12.655Z,0
2018-02-11T09:59:25.881Z,0
2018-02-11T10:00:39.121Z,0
2018-02-11T10:01:52.324Z,0
2018-02-11T10:03:05.490Z,0
2018-02-11T10:04:18.598Z,0
2018-02-11T10:05:31.509Z,0
2018-02-11T10:06:44.731Z,0
2018-02-11T10:07:57.988Z,0
2018-02-11T10:09:11.127Z,0
2018-02-11T10:10:24.111Z,0
2018-02-11T10:11:37.286Z,0
2018-02-11T10:12:50.487Z,0
2018-02-11T10:14:03.708Z,0
2018-02-11T10:15:16.919Z,0
2018-02-11T10:16:30.055Z,0
2018-02-11T10:17:43.224Z,0
2018-02-11T10:18:56.377Z,0
2018-02-11T10:20:09.576Z,0
2018-02-11T10:21:22.770Z,0
2018-02-11T10:22:35.424Z,0
2018-02-11T10:23:48.157Z,0
2018-02-11T10:25:01.316Z,0
2018-02-11T10:26:14.506Z,0
2018-02-11T10:27:27.759Z,0
2018-02-11T10:28:40.532Z,0
2018-02-11T10:29:53.777Z,0
2018-02-11T10:31:06.975Z,0
2018-02-11T10:32:20.192Z,0
2018-02-11T10:33:33.386Z,0
2018-02-11T10:34:46.595Z,0
2018-02-11T10:35:59.808Z,0
2018-02-11T10:37:12.579Z,0
2018-02-11T10:38:25.698Z,0
2018-02-11T10:39:38.899Z,0
2018-02-11T10:40:52.140Z,0
2018-02-11T10:42:05.308Z,0
2018-02-11T10:43:18.500Z,0
2018-02-11T10:44:31.696Z,0
2018-02-11T10:45:44.824Z,0
2018-02-11T10:46:58.044Z,0
2018-02-11T10:48:11.219Z,0
2018-02-11T10:49:55.601Z,0
2018-02-11T10:51:08.686Z,0
2018-02-11T10:52:21.884Z,0
2018-02-11T10:53:35.063Z,0
2018-02-11T10:54:48.151Z,0
2018-02-11T10:56:01.334Z,0
2018-02-11T10:57:14.514Z,0
2018-02-11T10:58:27.393Z,0
2018-02-11T10:59:40.580Z,0
2018-02-11T11:00:53.808Z,0
2018-02-11T11:02:06.950Z,0
2018-02-11T11:03:20.067Z,0
2018-02-11T11:04:33.273Z,0
2018-02-11T11:05:46.152Z,0
2018-02-11T11:06:59.370Z,0
2018-02-11T11:08:12.624Z,0
2018-02-11T11:09:25.770Z,0
2018-02-11T11:10:38.728Z,0
2018-02-11T11:11:51.966Z,0
2018-02-11T11:13:05.174Z,0
2018-02-11T11:14:18.440Z,0
2018-02-11T11:15:31.495Z,0
2018-02-11T11:16:44.270Z,0
2018-02-11T11:17:57.505Z,0
2018-02-11T11:19:10.711Z,0
2018-02-11T11:20:23.719Z,0
2018-02-11T11:21:36.947Z,0
2018-02-11T11:22:49.939Z,0
2018-02-11T11:24:03.178Z,0
2018-02-11T11:25:16.454Z,0
2018-02-11T11:26:29.692Z,0
2018-02-11T11:27:42.907Z,0
2018-02-11T11:28:56.113Z,0
2018-02-11T11:30:09.330Z,0
2018-02-11T11:31:22.490Z,0
2018-02-11T11:32:35.692Z,0
2018-02-11T11:33:48.884Z,0
2018-02-11T11:35:02.084Z,0
2018-02-11T11:36:15.232Z,0
2018-02-11T11:37:28.388Z,0
2018-02-11T11:38:41.568Z,0
2018-02-11T11:39:54.782Z,0
2018-02-11T11:41:08.065Z,0
2018-02-11T11:42:21.280Z,0
2018-02-11T11:43:34.022Z,0
2018-02-11T11:44:47.200Z,0
2018-02-11T11:46:00.419Z,0
2018-02-11T11:47:13.628Z,0
2018-02-11T11:48:26.750Z,0
2018-02-11T11:49:39.935Z,0
2018-02-11T11:50:53.167Z,0
2018-02-11T11:52:06.282Z,0
2018-02-11T11:53:19.551Z,0
2018-02-11T11:54:32.729Z,0
2018-02-11T11:55:45.988Z,0
2018-02-11T11:56:59.153Z,0
2018-02-11T11:58:12.324Z,0
2018-02-11T11:59:25.583Z,0
2018-02-11T12:00:38.754Z,0
2018-02-11T12:01:51.919Z,0
2018-02-11T12:03:05.184Z,0
2018-02-11T12:04:18.400Z,0
2018-02-11T12:05:31.558Z,0
2018-02-11T12:06:44.201Z,0
2018-02-11T12:07:57.439Z,0
2018-02-11T12:09:10.635Z,0
2018-02-11T12:10:23.811Z,0
2018-02-11T12:11:36.980Z,0
2018-02-11T12:12:50.129Z,0
2018-02-11T12:14:03.344Z,0
2018-02-11T12:15:16.472Z,0
2018-02-11T12:16:29.666Z,0
2018-02-11T12:17:42.871Z,0
2018-02-11T12:18:56.072Z,0
2018-02-11T12:20:09.315Z,0
2018-02-11T12:21:21.832Z,0
2018-02-11T12:22:35.019Z,0
2018-02-11T12:23:48.306Z,0
2018-02-11T12:25:01.222Z,0
2018-02-11T12:26:14.431Z,0
2018-02-11T12:27:27.655Z,0
2018-02-11T12:28:40.756Z,0
2018-02-11T12:29:53.955Z,0
2018-02-11T12:31:07.103Z,0
2018-02-11T12:32:20.253Z,0
2018-02-11T12:33:33.509Z,0
2018-02-11T12:34:46.722Z,0
2018-02-11T12:35:59.414Z,0
2018-02-11T12:37:12.655Z,0
2018-02-11T12:38:25.847Z,0
2018-02-11T12:39:39.148Z,0
2018-02-11T12:40:52.291Z,0
2018-02-11T12:42:05.436Z,5
2018-02-11T12:43:18.529Z,5
2018-02-11T12:44:31.734Z,5
2018-02-11T12:45:45.018Z,5
2018-02-11T12:46:58.223Z,5
2018-02-11T12:48:11.431Z,5
2018-02-11T12:49:24.607Z,5
2018-02-11T12:50:37.764Z,5
2018-02-11T12:51:50.766Z,5
2018-02-11T12:53:03.988Z,5
2018-02-11T12:54:17.192Z,5
2018-02-11T12:55:30.319Z,10
2018-02-11T12:56:43.503Z,10
2018-02-11T12:57:56.803Z,10
2018-02-11T12:59:10.022Z,10
2018-02-11T13:00:23.157Z,10
2018-02-11T13:01:36.408Z,10
2018-02-11T13:02:49.127Z,10
2018-02-11T13:04:01.770Z,10
2018-02-11T13:05:14.901Z,10
2018-02-11T13:06:28.165Z,10
2018-02-11T13:07:41.396Z,10
2018-02-11T13:08:54.586Z,10
2018-02-11T13:10:07.805Z,10
2018-02-11T13:11:21.048Z,10
2018-02-11T13:12:34.306Z,10
2018-02-11T13:13:47.488Z,10
2018-02-11T13:15:00.792Z,10
2018-02-11T13:16:13.994Z,10
2018-02-11T13:17:27.240Z,10
2018-02-11T13:18:40.440Z,10
2018-02-11T13:19:53.656Z,10
2018-02-11T13:21:06.872Z,10
2018-02-11T13:22:20.094Z,10
2018-02-11T13:23:33.280Z,10
2018-02-11T13:24:46.466Z,10
2018-02-11T13:25:59.653Z,10
2018-02-11T13:27:12.867Z,10
2018-02-11T13:28:26.079Z,15
2018-02-11T13:29:39.275Z,15
2018-02-11T13:30:52.493Z,15
2018-02-11T13:32:05.697Z,15
2018-02-11T13:33:18.895Z,15
2018-02-11T13:34:32.100Z,15
2018-02-11T13:35:45.403Z,15
2018-02-11T13:36:58.658Z,15
2018-02-11T13:38:11.926Z,15
2018-02-11T13:39:24.400Z,15
2018-02-11T13:40:37.661Z,15
2018-02-11T13:41:50.831Z,15
2018-02-11T13:43:04.160Z,15
2018-02-11T13:44:17.314Z,15
2018-02-11T13:45:30.264Z,15
2018-02-11T13:46:43.190Z,15
2018-02-11T13:47:56.482Z,15
2018-02-11T13:49:09.504Z,15
2018-02-11T13:50:22.438Z,15
2018-02-11T13:51:35.658Z,15
2018-02-11T13:52:49.458Z,15
2018-02-11T13:54:02.612Z,15
2018-02-11T13:55:15.723Z,15
2018-02-11T13:56:29.206Z,15
2018-02-11T13:57:42.428Z,15
2018-02-11T13:58:55.621Z,5
2018-02-11T14:00:08.782Z,0
2018-02-11T14:01:22.289Z,15
2018-02-11T14:02:35.417Z,5
2018-02-11T14:03:48.560Z,15
2018-02-11T14:05:01.757Z,15
2018-02-11T14:06:14.927Z,15
2018-02-11T14:07:28.152Z,15
2018-02-11T14:08:41.038Z,15
2018-02-11T14:09:53.779Z,15
2018-02-11T14:11:06.783Z,15
2018-02-11T14:12:19.988Z,15
2018-02-11T14:13:33.207Z,20
2018-02-11T14:14:46.399Z,20
2018-02-11T14:15:59.658Z,20
2018-02-11T14:17:12.820Z,20
2018-02-11T14:18:25.989Z,20
2018-02-11T14:19:39.294Z,20
2018-02-11T14:20:52.436Z,20
2018-02-11T14:22:05.307Z,20
2018-02-11T14:23:18.521Z,20
2018-02-11T14:24:31.740Z,20
2018-02-11T14:25:44.930Z,20
2018-02-11T14:26:58.093Z,20
2018-02-11T14:28:11.368Z,20
2018-02-11T14:29:24.616Z,20
2018-02-11T14:30:37.777Z,20
2018-02-11T14:31:50.947Z,20
2018-02-11T14:33:04.200Z,20
2018-02-11T14:34:16.901Z,20
2018-02-11T14:35:30.056Z,15
2018-02-11T14:36:43.063Z,15
2018-02-11T14:37:56.235Z,15
2018-02-11T14:39:09.406Z,20
2018-02-11T14:40:22.591Z,20
2018-02-11T14:41:35.335Z,20
2018-02-11T14:42:48.539Z,20
2018-02-11T14:44:01.742Z,25
2018-02-11T14:45:15.007Z,20
2018-02-11T14:46:28.251Z,20
2018-02-11T14:47:41.431Z,20
2018-02-11T14:48:54.653Z,20
2018-02-11T14:50:07.816Z,25
2018-02-11T14:51:21.006Z,25
2018-02-11T14:52:33.741Z,0
2018-02-11T14:53:46.447Z,0
2018-02-11T14:54:59.697Z,0
2018-02-11T14:56:12.965Z,0
2018-02-11T14:57:26.207Z,0
2018-02-11T14:58:39.452Z,0
2018-02-11T14:59:52.233Z,0
2018-02-11T15:01:05.410Z,0
2018-02-11T15:02:18.606Z,0
2018-02-11T15:03:31.850Z,0
2018-02-11T15:04:45.041Z,0
2018-02-11T15:05:58.292Z,0
2018-02-11T15:07:11.486Z,0
2018-02-11T15:08:24.685Z,0
2018-02-11T15:09:37.860Z,0
2018-02-11T15:10:51.098Z,5
2018-02-11T15:12:04.293Z,30
2018-02-11T15:13:17.242Z,10
2018-02-11T15:14:30.477Z,25
2018-02-11T15:15:43.719Z,5
2018-02-11T15:16:56.958Z,0
2018-02-11T15:18:09.693Z,5
2018-02-11T15:19:22.857Z,25
2018-02-11T15:20:36.002Z,25
2018-02-11T15:21:49.223Z,25
2018-02-11T15:23:02.480Z,25
2018-02-11T15:24:15.721Z,25
2018-02-11T15:25:28.992Z,25
2018-02-11T15:26:41.922Z,25
2018-02-11T15:27:55.110Z,25
2018-02-11T15:29:08.273Z,25
2018-02-11T15:30:20.939Z,25
2018-02-11T15:31:33.881Z,25
2018-02-11T15:32:47.101Z,25
2018-02-11T15:34:00.065Z,5
2018-02-11T15:35:13.257Z,25
2018-02-11T15:36:26.523Z,25
2018-02-11T15:37:39.736Z,25
2018-02-11T15:38:52.973Z,30
2018-02-11T15:40:06.128Z,25
2018-02-11T15:41:19.358Z,25
2018-02-11T15:42:32.537Z,25
2018-02-11T15:43:45.766Z,25
2018-02-11T15:44:59.010Z,25
2018-02-11T15:46:12.182Z,25
2018-02-11T15:47:25.465Z,30
2018-02-11T15:48:38.697Z,5
2018-02-11T15:49:51.890Z,30
2018-02-11T15:51:04.663Z,30
2018-02-11T15:52:17.893Z,30
2018-02-11T15:53:31.105Z,0
2018-02-11T15:54:44.064Z,0
2018-02-11T15:55:57.326Z,0
2018-02-11T15:57:10.525Z,0
2018-02-11T15:58:23.771Z,0
2018-02-11T15:59:36.927Z,0
2018-02-11T16:00:49.671Z,5
2018-02-11T16:02:02.781Z,5
2018-02-11T16:03:15.744Z,30
2018-02-11T16:04:28.971Z,30
2018-02-11T16:05:42.184Z,15
2018-02-11T16:06:55.433Z,15
2018-02-11T16:08:08.630Z,30
2018-02-11T16:09:21.837Z,30
2018-02-11T16:10:35.024Z,30
2018-02-11T16:11:48.203Z,30
2018-02-11T16:13:00.924Z,30
2018-02-11T16:14:14.155Z,25
2018-02-11T16:15:27.348Z,20
2018-02-11T16:16:40.509Z,15
2018-02-11T16:17:53.651Z,5
2018-02-11T16:19:06.923Z,0
2018-02-11T16:20:20.241Z,0
2018-02-11T16:21:33.423Z,5
2018-02-11T16:22:46.964Z,30
2018-02-11T16:24:00.237Z,30
2018-02-11T16:25:13.436Z,0
2018-02-11T16:26:26.396Z,0
2018-02-11T16:27:39.562Z,0
2018-02-11T16:28:52.759Z,5
2018-02-11T16:30:05.981Z,10
2018-02-11T16:31:19.166Z,5
2018-02-11T16:32:32.349Z,5
2018-02-11T16:33:45.322Z,35
2018-02-11T16:34:58.505Z,0
2018-02-11T16:36:11.697Z,0
2018-02-11T16:37:24.394Z,0
2018-02-11T16:38:37.405Z,25
2018-02-11T16:39:50.609Z,5
2018-02-11T16:41:03.338Z,20
2018-02-11T16:42:16.512Z,20
2018-02-11T16:43:29.741Z,15
2018-02-11T16:44:42.952Z,5
2018-02-11T16:46:10.125Z,0
2018-02-11T16:47:23.363Z,5
2018-02-11T16:48:36.533Z,30
2018-02-11T16:49:49.687Z,20
2018-02-11T16:51:03.026Z,10
2018-02-11T16:52:15.759Z,5
2018-02-11T16:53:28.950Z,5
2018-02-11T16:54:42.199Z,10
2018-02-11T16:55:55.374Z,5
2018-02-11T16:57:08.517Z,0
2018-02-11T16:58:21.779Z,0
2018-02-11T16:59:34.996Z,25
2018-02-11T17:00:48.320Z,5
2018-02-11T17:02:01.490Z,5
2018-02-11T17:03:14.740Z,5
2018-02-11T17:04:27.995Z,5
2018-02-11T17:05:40.877Z,15
2018-02-11T17:06:54.147Z,5
2018-02-11T17:08:07.328Z,5
2018-02-11T17:09:20.628Z,30
2018-02-11T17:10:33.893Z,25
2018-02-11T17:11:47.125Z,0
2018-02-11T17:13:00.272Z,5
2018-02-11T17:14:13.463Z,0
2018-02-11T17:15:26.664Z,30
2018-02-11T17:16:39.783Z,5
2018-02-11T17:17:52.974Z,5
2018-02-11T17:19:06.186Z,5
2018-02-11T17:20:19.473Z,20
2018-02-11T17:21:32.662Z,25
2018-02-11T17:22:45.899Z,30
2018-02-11T17:23:59.041Z,0
2018-02-11T17:25:12.249Z,0
2018-02-11T17:26:25.436Z,0
2018-02-11T17:27:38.636Z,0
2018-02-11T17:28:51.860Z,0
2018-02-11T17:30:05.046Z,15
2018-02-11T17:31:17.984Z,5
2018-02-11T17:32:31.186Z,0
2018-02-11T17:33:43.851Z,0
2018-02-11T17:34:57.066Z,0
2018-02-11T17:36:10.033Z,15
2018-02-11T17:37:23.286Z,0
2018-02-11T17:38:36.482Z,0
2018-02-11T17:39:49.669Z,0
2018-02-11T17:41:02.878Z,0
2018-02-11T17:42:16.087Z,0
2018-02-11T17:43:29.425Z,0
2018-02-11T17:44:42.162Z,0
2018-02-11T17:45:54.857Z,0
2018-02-11T17:47:08.060Z,0
2018-02-11T17:48:21.382Z,0
2018-02-11T17:49:34.571Z,0
2018-02-11T17:50:47.858Z,0
2018-02-11T17:52:00.575Z,0
2018-02-11T17:53:13.773Z,0
2018-02-11T17:54:26.978Z,0
2018-02-11T17:55:40.164Z,0
2018-02-11T17:57:21.361Z,0
2018-02-11T17:58:34.582Z,0